KGED/GED METAR and TAF weather

Enter ICAO airport designator
Station Type Date Time Source
KGED METAR 2022/01/28 04:54 UTC NOAA

KGED 280454Z AUTO 18004KT 10SM BKN050 OVC075 M02/M07 A3024 RMK AO2 SLP240 T10171072 400331106 $


Station Type Date Time Source
KGED Decoded METAR 2022/01/28 04:54 UTC NOAA

GEORGETOWN SUSSEX CO AIRPORT , DE, United States (KGED) 38-41N 075-22W 19M
Jan 27, 2022 - 11:54 PM EST / 2022.01.28 0454 UTC
Wind: from the S (180 degrees) at 5 MPH (4 KT):0
Visibility: 10 mile(s):0
Sky conditions: overcast
Temperature: 28.9 F (-1.7 C)
Windchill: 23 F (-5 C):1
Dew Point: 19.0 F (-7.2 C)
Relative Humidity: 66%
Pressure (altimeter): 30.24 in. Hg (1024 hPa)
ob: KGED 280454Z AUTO 18004KT 10SM BKN050 OVC075 M02/M07 A3024 RMK AO2 SLP240 T10171072 400331106
cycle: 5

Station Type Date Time Source
KGED TAF UTC NOAA

Error!

Example: see airport list